sensor_id;sensor_type;location;lat;lon;timestamp;pressure;altitude;pressure_sealevel;temperature
70050;BMP180;57391;51.306;22.680;2023-04-24T00:01:41;99009.20;;;12.70
70050;BMP180;57391;51.306;22.680;2023-04-24T00:04:09;99004.00;;;12.70
70050;BMP180;57391;51.306;22.680;2023-04-24T00:06:37;99002.80;;;12.70
70050;BMP180;57391;51.306;22.680;2023-04-24T00:09:05;99000.20;;;12.70
70050;BMP180;57391;51.306;22.680;2023-04-24T00:11:32;99000.20;;;12.70
70050;BMP180;57391;51.306;22.680;2023-04-24T00:13:59;98996.40;;;12.70
70050;BMP180;57391;51.306;22.680;2023-04-24T00:16:26;98999.60;;;12.70
70050;BMP180;57391;51.306;22.680;2023-04-24T00:18:55;98993.20;;;12.70
70050;BMP180;57391;51.306;22.680;2023-04-24T00:21:22;98986.60;;;12.70
70050;BMP180;57391;51.306;22.680;2023-04-24T00:23:53;98986.80;;;12.70
70050;BMP180;57391;51.306;22.680;2023-04-24T00:26:20;98982.40;;;12.70
70050;BMP180;57391;51.306;22.680;2023-04-24T00:28:47;98977.60;;;12.70
70050;BMP180;57391;51.306;22.680;2023-04-24T00:31:14;98977.20;;;12.70
70050;BMP180;57391;51.306;22.680;2023-04-24T00:33:41;98975.40;;;12.70
70050;BMP180;57391;51.306;22.680;2023-04-24T00:36:08;98972.40;;;12.70
70050;BMP180;57391;51.306;22.680;2023-04-24T00:38:35;98974.40;;;12.70
70050;BMP180;57391;51.306;22.680;2023-04-24T00:41:02;98969.80;;;12.70
70050;BMP180;57391;51.306;22.680;2023-04-24T00:43:29;98973.60;;;12.64
70050;BMP180;57391;51.306;22.680;2023-04-24T00:45:56;98971.00;;;12.60
70050;BMP180;57391;51.306;22.680;2023-04-24T00:48:24;98970.20;;;12.52
70050;BMP180;57391;51.306;22.680;2023-04-24T00:50:52;98969.80;;;12.50
70050;BMP180;57391;51.306;22.680;2023-04-24T00:53:19;98970.40;;;12.50
70050;BMP180;57391;51.306;22.680;2023-04-24T00:55:46;98966.00;;;12.50
70050;BMP180;57391;51.306;22.680;2023-04-24T00:58:14;98963.60;;;12.48
70050;BMP180;57391;51.306;22.680;2023-04-24T01:00:41;98966.20;;;12.40
70050;BMP180;57391;51.306;22.680;2023-04-24T01:03:08;98966.20;;;12.40
70050;BMP180;57391;51.306;22.680;2023-04-24T01:05:36;98964.60;;;12.40
70050;BMP180;57391;51.306;22.680;2023-04-24T01:08:03;98967.00;;;12.40
70050;BMP180;57391;51.306;22.680;2023-04-24T01:10:33;98964.80;;;12.30
70050;BMP180;57391;51.306;22.680;2023-04-24T01:13:00;98961.60;;;12.20
70050;BMP180;57391;51.306;22.680;2023-04-24T01:15:27;98965.00;;;12.10
70050;BMP180;57391;51.306;22.680;2023-04-24T01:17:54;98963.00;;;12.00
70050;BMP180;57391;51.306;22.680;2023-04-24T01:20:24;98963.20;;;11.80
70050;BMP180;57391;51.306;22.680;2023-04-24T01:22:54;98963.00;;;11.70
70050;BMP180;57391;51.306;22.680;2023-04-24T01:25:27;98964.00;;;11.60
70050;BMP180;57391;51.306;22.680;2023-04-24T01:27:57;98960.60;;;11.50
70050;BMP180;57391;51.306;22.680;2023-04-24T01:30:28;98961.60;;;11.40
70050;BMP180;57391;51.306;22.680;2023-04-24T01:32:55;98960.40;;;11.20
70050;BMP180;57391;51.306;22.680;2023-04-24T01:35:22;98956.40;;;11.20
70050;BMP180;57391;51.306;22.680;2023-04-24T01:37:50;98956.60;;;11.10
70050;BMP180;57391;51.306;22.680;2023-04-24T01:40:17;98954.20;;;11.00
70050;BMP180;57391;51.306;22.680;2023-04-24T01:42:45;98948.80;;;10.90
70050;BMP180;57391;51.306;22.680;2023-04-24T01:45:12;98952.00;;;10.86
70050;BMP180;57391;51.306;22.680;2023-04-24T01:47:40;98948.40;;;10.80
70050;BMP180;57391;51.306;22.680;2023-04-24T01:50:08;98948.20;;;10.70
70050;BMP180;57391;51.306;22.680;2023-04-24T01:52:35;98946.00;;;10.70
70050;BMP180;57391;51.306;22.680;2023-04-24T01:55:04;98944.60;;;10.60
70050;BMP180;57391;51.306;22.680;2023-04-24T01:57:33;98944.40;;;10.60
70050;BMP180;57391;51.306;22.680;2023-04-24T02:00:01;98937.80;;;10.50
70050;BMP180;57391;51.306;22.680;2023-04-24T02:02:40;98936.00;;;10.50
70050;BMP180;57391;51.306;22.680;2023-04-24T02:05:09;98937.60;;;10.50
70050;BMP180;57391;51.306;22.680;2023-04-24T02:07:39;98938.60;;;10.42
70050;BMP180;57391;51.306;22.680;2023-04-24T02:10:07;98937.20;;;10.40
70050;BMP180;57391;51.306;22.680;2023-04-24T02:12:34;98941.00;;;10.40
70050;BMP180;57391;51.306;22.680;2023-04-24T02:15:02;98937.60;;;10.30
70050;BMP180;57391;51.306;22.680;2023-04-24T02:17:29;98934.60;;;10.30
70050;BMP180;57391;51.306;22.680;2023-04-24T02:19:57;98931.20;;;10.22
70050;BMP180;57391;51.306;22.680;2023-04-24T02:22:24;98931.20;;;10.20
70050;BMP180;57391;51.306;22.680;2023-04-24T02:24:51;98922.40;;;10.10
70050;BMP180;57391;51.306;22.680;2023-04-24T02:27:18;98922.60;;;10.10
70050;BMP180;57391;51.306;22.680;2023-04-24T02:29:45;98914.60;;;10.00
70050;BMP180;57391;51.306;22.680;2023-04-24T02:32:12;98914.60;;;9.98
70050;BMP180;57391;51.306;22.680;2023-04-24T02:34:43;98914.00;;;9.90
70050;BMP180;57391;51.306;22.680;2023-04-24T02:37:10;98907.40;;;9.88
70050;BMP180;57391;51.306;22.680;2023-04-24T02:39:38;98914.60;;;9.80
70050;BMP180;57391;51.306;22.680;2023-04-24T02:42:04;98914.40;;;9.80
70050;BMP180;57391;51.306;22.680;2023-04-24T02:44:32;98914.00;;;9.70
70050;BMP180;57391;51.306;22.680;2023-04-24T02:46:58;98908.80;;;9.70
70050;BMP180;57391;51.306;22.680;2023-04-24T02:49:25;98909.40;;;9.60
70050;BMP180;57391;51.306;22.680;2023-04-24T02:51:54;98906.40;;;9.54
70050;BMP180;57391;51.306;22.680;2023-04-24T02:54:21;98906.80;;;9.50
70050;BMP180;57391;51.306;22.680;2023-04-24T02:56:48;98909.20;;;9.40
70050;BMP180;57391;51.306;22.680;2023-04-24T02:59:15;98909.00;;;9.40
70050;BMP180;57391;51.306;22.680;2023-04-24T03:01:42;98907.40;;;9.30
70050;BMP180;57391;51.306;22.680;2023-04-24T03:04:09;98910.40;;;9.30
70050;BMP180;57391;51.306;22.680;2023-04-24T03:06:37;98910.60;;;9.30
70050;BMP180;57391;51.306;22.680;2023-04-24T03:09:04;98905.20;;;9.30
70050;BMP180;57391;51.306;22.680;2023-04-24T03:11:32;98908.80;;;9.30
70050;BMP180;57391;51.306;22.680;2023-04-24T03:13:59;98905.40;;;9.30
70050;BMP180;57391;51.306;22.680;2023-04-24T03:16:26;98903.60;;;9.30
70050;BMP180;57391;51.306;22.680;2023-04-24T03:18:55;98905.60;;;9.30
70050;BMP180;57391;51.306;22.680;2023-04-24T03:21:23;98900.80;;;9.30
70050;BMP180;57391;51.306;22.680;2023-04-24T03:23:50;98901.60;;;9.30
70050;BMP180;57391;51.306;22.680;2023-04-24T03:26:18;98902.00;;;9.30
70050;BMP180;57391;51.306;22.680;2023-04-24T03:28:54;98902.20;;;9.30
70050;BMP180;57391;51.306;22.680;2023-04-24T03:31:22;98904.80;;;9.30
70050;BMP180;57391;51.306;22.680;2023-04-24T03:33:50;98900.60;;;9.30
70050;BMP180;57391;51.306;22.680;2023-04-24T03:36:17;98901.60;;;9.30
70050;BMP180;57391;51.306;22.680;2023-04-24T03:38:46;98902.20;;;9.30
70050;BMP180;57391;51.306;22.680;2023-04-24T03:41:25;98903.20;;;9.30
70050;BMP180;57391;51.306;22.680;2023-04-24T03:43:56;98901.20;;;9.30
70050;BMP180;57391;51.306;22.680;2023-04-24T03:46:23;98902.80;;;9.30
70050;BMP180;57391;51.306;22.680;2023-04-24T03:48:54;98908.00;;;9.30
70050;BMP180;57391;51.306;22.680;2023-04-24T03:51:24;98900.80;;;9.40
70050;BMP180;57391;51.306;22.680;2023-04-24T03:53:54;98896.80;;;9.90
70050;BMP180;57391;51.306;22.680;2023-04-24T03:56:21;98894.40;;;10.36
70050;BMP180;57391;51.306;22.680;2023-04-24T03:58:48;98903.20;;;11.06
70050;BMP180;57391;51.306;22.680;2023-04-24T04:01:16;98902.00;;;11.50
70050;BMP180;57391;51.306;22.680;2023-04-24T04:03:53;98907.60;;;11.50
70050;BMP180;57391;51.306;22.680;2023-04-24T04:06:23;98907.60;;;11.40
70050;BMP180;57391;51.306;22.680;2023-04-24T04:08:52;98905.40;;;11.20
70050;BMP180;57391;51.306;22.680;2023-04-24T04:11:19;98908.20;;;11.00
70050;BMP180;57391;51.306;22.680;2023-04-24T04:13:46;98911.40;;;10.80
70050;BMP180;57391;51.306;22.680;2023-04-24T04:16:16;98906.40;;;10.70
70050;BMP180;57391;51.306;22.680;2023-04-24T04:18:47;98910.20;;;10.70
70050;BMP180;57391;51.306;22.680;2023-04-24T04:21:14;98907.60;;;10.60
70050;BMP180;57391;51.306;22.680;2023-04-24T04:23:42;98907.60;;;11.04
70050;BMP180;57391;51.306;22.680;2023-04-24T04:26:24;98915.80;;;11.10
70050;BMP180;57391;51.306;22.680;2023-04-24T04:29:21;98917.00;;;11.00
70050;BMP180;57391;51.306;22.680;2023-04-24T04:31:50;98911.60;;;10.90
70050;BMP180;57391;51.306;22.680;2023-04-24T04:34:17;98913.80;;;11.04
70050;BMP180;57391;51.306;22.680;2023-04-24T04:36:45;98916.40;;;11.02
70050;BMP180;57391;51.306;22.680;2023-04-24T04:39:42;98913.20;;;11.10
70050;BMP180;57391;51.306;22.680;2023-04-24T04:42:13;98908.00;;;11.52
70050;BMP180;57391;51.306;22.680;2023-04-24T04:44:42;98919.80;;;12.14
70050;BMP180;57391;51.306;22.680;2023-04-24T04:47:13;98921.00;;;11.96
70050;BMP180;57391;51.306;22.680;2023-04-24T04:49:41;98907.40;;;12.06
70050;BMP180;57391;51.306;22.680;2023-04-24T04:52:13;98925.40;;;12.60
70050;BMP180;57391;51.306;22.680;2023-04-24T04:54:40;98922.40;;;12.40
70050;BMP180;57391;51.306;22.680;2023-04-24T04:57:07;98925.60;;;12.16
70050;BMP180;57391;51.306;22.680;2023-04-24T04:59:35;98919.60;;;12.18
70050;BMP180;57391;51.306;22.680;2023-04-24T05:02:05;98921.60;;;12.00
70050;BMP180;57391;51.306;22.680;2023-04-24T05:04:32;98922.00;;;11.90
70050;BMP180;57391;51.306;22.680;2023-04-24T05:06:59;98916.20;;;12.28
70050;BMP180;57391;51.306;22.680;2023-04-24T05:09:27;98914.20;;;13.04
70050;BMP180;57391;51.306;22.680;2023-04-24T05:12:00;98914.80;;;13.86
70050;BMP180;57391;51.306;22.680;2023-04-24T05:14:30;98920.80;;;13.90
70050;BMP180;57391;51.306;22.680;2023-04-24T05:16:58;98920.80;;;13.70
70050;BMP180;57391;51.306;22.680;2023-04-24T05:19:27;98920.20;;;13.56
70050;BMP180;57391;51.306;22.680;2023-04-24T05:21:54;98921.80;;;13.40
70050;BMP180;57391;51.306;22.680;2023-04-24T05:24:22;98921.00;;;13.30
70050;BMP180;57391;51.306;22.680;2023-04-24T05:27:09;98921.40;;;13.30
70050;BMP180;57391;51.306;22.680;2023-04-24T05:29:39;98924.00;;;13.36
70050;BMP180;57391;51.306;22.680;2023-04-24T05:32:06;98928.40;;;13.40
70050;BMP180;57391;51.306;22.680;2023-04-24T05:34:35;98923.20;;;13.50
70050;BMP180;57391;51.306;22.680;2023-04-24T05:37:03;98924.00;;;13.56
70050;BMP180;57391;51.306;22.680;2023-04-24T05:39:35;98921.80;;;13.60
70050;BMP180;57391;51.306;22.680;2023-04-24T05:42:02;98920.40;;;13.80
70050;BMP180;57391;51.306;22.680;2023-04-24T05:44:31;98924.80;;;13.90
70050;BMP180;57391;51.306;22.680;2023-04-24T05:46:58;98925.60;;;13.94
70050;BMP180;57391;51.306;22.680;2023-04-24T05:49:25;98923.80;;;14.04
70050;BMP180;57391;51.306;22.680;2023-04-24T05:51:52;98921.40;;;14.20
70050;BMP180;57391;51.306;22.680;2023-04-24T05:54:19;98918.60;;;14.30
70050;BMP180;57391;51.306;22.680;2023-04-24T05:56:46;98922.40;;;14.48
70050;BMP180;57391;51.306;22.680;2023-04-24T05:59:18;98917.40;;;14.60
70050;BMP180;57391;51.306;22.680;2023-04-24T06:01:46;98921.60;;;14.80
70050;BMP180;57391;51.306;22.680;2023-04-24T06:04:18;98920.40;;;14.94
70050;BMP180;57391;51.306;22.680;2023-04-24T06:06:46;98923.00;;;15.10
70050;BMP180;57391;51.306;22.680;2023-04-24T06:09:13;98914.40;;;15.20
70050;BMP180;57391;51.306;22.680;2023-04-24T06:11:40;98919.60;;;15.34
70050;BMP180;57391;51.306;22.680;2023-04-24T06:14:09;98918.80;;;15.40
70050;BMP180;57391;51.306;22.680;2023-04-24T06:16:42;98910.80;;;15.54
70050;BMP180;57391;51.306;22.680;2023-04-24T06:19:17;98915.40;;;15.70
70050;BMP180;57391;51.306;22.680;2023-04-24T06:21:44;98914.00;;;15.80
70050;BMP180;57391;51.306;22.680;2023-04-24T06:24:14;98919.60;;;15.90
70050;BMP180;57391;51.306;22.680;2023-04-24T06:26:42;98919.00;;;15.90
70050;BMP180;57391;51.306;22.680;2023-04-24T06:29:09;98915.20;;;16.00
70050;BMP180;57391;51.306;22.680;2023-04-24T06:31:36;98916.60;;;16.00
70050;BMP180;57391;51.306;22.680;2023-04-24T06:34:04;98912.00;;;16.10
70050;BMP180;57391;51.306;22.680;2023-04-24T06:36:32;98909.60;;;16.20
70050;BMP180;57391;51.306;22.680;2023-04-24T06:39:01;98915.40;;;16.30
70050;BMP180;57391;51.306;22.680;2023-04-24T06:41:29;98910.20;;;16.40
70050;BMP180;57391;51.306;22.680;2023-04-24T06:43:56;98912.80;;;16.50
70050;BMP180;57391;51.306;22.680;2023-04-24T06:46:23;98907.40;;;16.60
70050;BMP180;57391;51.306;22.680;2023-04-24T06:48:54;98907.60;;;16.74
70050;BMP180;57391;51.306;22.680;2023-04-24T06:51:24;98904.60;;;16.80
70050;BMP180;57391;51.306;22.680;2023-04-24T06:53:53;98910.40;;;16.90
70050;BMP180;57391;51.306;22.680;2023-04-24T06:56:20;98915.20;;;17.00
70050;BMP180;57391;51.306;22.680;2023-04-24T06:58:48;98909.40;;;17.10
70050;BMP180;57391;51.306;22.680;2023-04-24T07:01:16;98908.60;;;17.20
70050;BMP180;57391;51.306;22.680;2023-04-24T07:03:43;98914.40;;;17.32
70050;BMP180;57391;51.306;22.680;2023-04-24T07:06:10;98911.20;;;17.48
70050;BMP180;57391;51.306;22.680;2023-04-24T07:08:38;98916.80;;;17.60
70050;BMP180;57391;51.306;22.680;2023-04-24T07:11:05;98917.60;;;17.60
70050;BMP180;57391;51.306;22.680;2023-04-24T07:13:33;98922.20;;;17.70
70050;BMP180;57391;51.306;22.680;2023-04-24T07:16:02;98918.20;;;17.80
70050;BMP180;57391;51.306;22.680;2023-04-24T07:18:30;98919.60;;;17.90
70050;BMP180;57391;51.306;22.680;2023-04-24T07:20:57;98920.60;;;18.00
70050;BMP180;57391;51.306;22.680;2023-04-24T07:23:25;98920.40;;;18.20
70050;BMP180;57391;51.306;22.680;2023-04-24T07:25:52;98922.80;;;18.30
70050;BMP180;57391;51.306;22.680;2023-04-24T07:28:20;98918.00;;;18.42
70050;BMP180;57391;51.306;22.680;2023-04-24T07:30:47;98923.20;;;18.60
70050;BMP180;57391;51.306;22.680;2023-04-24T07:33:14;98923.80;;;18.70
70050;BMP180;57391;51.306;22.680;2023-04-24T07:35:42;98921.00;;;18.80
70050;BMP180;57391;51.306;22.680;2023-04-24T07:38:09;98921.80;;;18.90
70050;BMP180;57391;51.306;22.680;2023-04-24T07:40:36;98919.40;;;18.90
70050;BMP180;57391;51.306;22.680;2023-04-24T07:43:03;98920.20;;;19.00
70050;BMP180;57391;51.306;22.680;2023-04-24T07:45:30;98918.60;;;19.00
70050;BMP180;57391;51.306;22.680;2023-04-24T07:47:58;98915.80;;;19.10
70050;BMP180;57391;51.306;22.680;2023-04-24T07:50:25;98920.60;;;19.20
70050;BMP180;57391;51.306;22.680;2023-04-24T07:52:52;98922.40;;;19.30
70050;BMP180;57391;51.306;22.680;2023-04-24T07:55:19;98919.40;;;19.30
70050;BMP180;57391;51.306;22.680;2023-04-24T07:57:46;98914.40;;;19.48
70050;BMP180;57391;51.306;22.680;2023-04-24T08:00:14;98915.80;;;19.60
70050;BMP180;57391;51.306;22.680;2023-04-24T08:02:41;98911.80;;;19.62
70050;BMP180;57391;51.306;22.680;2023-04-24T08:05:08;98915.00;;;19.82
70050;BMP180;57391;51.306;22.680;2023-04-24T08:07:36;98912.80;;;20.00
70050;BMP180;57391;51.306;22.680;2023-04-24T08:10:03;98912.00;;;20.10
70050;BMP180;57391;51.306;22.680;2023-04-24T08:12:31;98912.00;;;20.30
70050;BMP180;57391;51.306;22.680;2023-04-24T08:14:58;98910.20;;;20.50
70050;BMP180;57391;51.306;22.680;2023-04-24T08:17:25;98915.60;;;20.64
70050;BMP180;57391;51.306;22.680;2023-04-24T08:19:52;98910.60;;;20.80
70050;BMP180;57391;51.306;22.680;2023-04-24T08:22:25;98913.60;;;21.00
70050;BMP180;57391;51.306;22.680;2023-04-24T08:24:53;98913.40;;;21.22
70050;BMP180;57391;51.306;22.680;2023-04-24T08:27:21;98912.80;;;21.50
70050;BMP180;57391;51.306;22.680;2023-04-24T08:29:48;98916.20;;;21.70
70050;BMP180;57391;51.306;22.680;2023-04-24T08:32:15;98914.60;;;21.90
70050;BMP180;57391;51.306;22.680;2023-04-24T08:34:42;98913.40;;;21.90
70050;BMP180;57391;51.306;22.680;2023-04-24T08:37:09;98911.60;;;22.00
70050;BMP180;57391;51.306;22.680;2023-04-24T08:39:36;98909.80;;;22.14
70050;BMP180;57391;51.306;22.680;2023-04-24T08:42:05;98905.80;;;22.20
70050;BMP180;57391;51.306;22.680;2023-04-24T08:44:35;98909.60;;;22.30
70050;BMP180;57391;51.306;22.680;2023-04-24T08:47:04;98904.40;;;22.30
70050;BMP180;57391;51.306;22.680;2023-04-24T08:49:31;98903.00;;;22.40
70050;BMP180;57391;51.306;22.680;2023-04-24T08:51:58;98906.20;;;22.40
70050;BMP180;57391;51.306;22.680;2023-04-24T08:54:26;98901.60;;;22.34
70050;BMP180;57391;51.306;22.680;2023-04-24T08:56:58;98895.60;;;22.30
70050;BMP180;57391;51.306;22.680;2023-04-24T08:59:28;98902.40;;;22.30
70050;BMP180;57391;51.306;22.680;2023-04-24T09:01:56;98904.40;;;22.30
70050;BMP180;57391;51.306;22.680;2023-04-24T09:04:24;98898.00;;;22.30
70050;BMP180;57391;51.306;22.680;2023-04-24T09:06:58;98899.20;;;22.40
70050;BMP180;57391;51.306;22.680;2023-04-24T09:09:25;98896.60;;;22.50
70050;BMP180;57391;51.306;22.680;2023-04-24T09:11:53;98894.20;;;22.60
70050;BMP180;57391;51.306;22.680;2023-04-24T09:14:24;98896.80;;;22.70
70050;BMP180;57391;51.306;22.680;2023-04-24T09:16:51;98899.20;;;22.80
70050;BMP180;57391;51.306;22.680;2023-04-24T09:19:18;98887.00;;;22.80
70050;BMP180;57391;51.306;22.680;2023-04-24T09:21:46;98895.40;;;22.78
70050;BMP180;57391;51.306;22.680;2023-04-24T09:24:19;98886.00;;;22.70
70050;BMP180;57391;51.306;22.680;2023-04-24T09:26:57;98886.80;;;22.74
70050;BMP180;57391;51.306;22.680;2023-04-24T09:29:30;98888.20;;;22.70
70050;BMP180;57391;51.306;22.680;2023-04-24T09:32:18;98879.00;;;22.78
70050;BMP180;57391;51.306;22.680;2023-04-24T09:34:48;98881.00;;;22.98
70050;BMP180;57391;51.306;22.680;2023-04-24T09:37:28;98878.40;;;22.92
70050;BMP180;57391;51.306;22.680;2023-04-24T09:42:54;98881.20;;;23.00
70050;BMP180;57391;51.306;22.680;2023-04-24T09:45:28;98874.00;;;23.14
70050;BMP180;57391;51.306;22.680;2023-04-24T09:47:55;98882.40;;;23.24
70050;BMP180;57391;51.306;22.680;2023-04-24T09:50:23;98876.80;;;23.30
70050;BMP180;57391;51.306;22.680;2023-04-24T09:53:01;98873.00;;;23.40
70050;BMP180;57391;51.306;22.680;2023-04-24T09:55:30;98872.40;;;23.50
70050;BMP180;57391;51.306;22.680;2023-04-24T09:58:00;98864.60;;;23.50
70050;BMP180;57391;51.306;22.680;2023-04-24T10:00:33;98866.80;;;23.52
70050;BMP180;57391;51.306;22.680;2023-04-24T10:03:05;98871.40;;;23.58
70050;BMP180;57391;51.306;22.680;2023-04-24T10:05:37;98864.20;;;23.60
70050;BMP180;57391;51.306;22.680;2023-04-24T10:08:07;98863.40;;;23.66
70050;BMP180;57391;51.306;22.680;2023-04-24T10:10:39;98859.80;;;23.80
70050;BMP180;57391;51.306;22.680;2023-04-24T10:13:10;98854.60;;;23.88
70050;BMP180;57391;51.306;22.680;2023-04-24T10:15:38;98858.00;;;24.00
70050;BMP180;57391;51.306;22.680;2023-04-24T10:18:09;98855.40;;;24.00
70050;BMP180;57391;51.306;22.680;2023-04-24T10:20:39;98860.00;;;24.10
70050;BMP180;57391;51.306;22.680;2023-04-24T10:23:07;98855.20;;;24.10
70050;BMP180;57391;51.306;22.680;2023-04-24T10:25:36;98850.40;;;24.10
70050;BMP180;57391;51.306;22.680;2023-04-24T10:28:04;98849.20;;;24.10
70050;BMP180;57391;51.306;22.680;2023-04-24T10:30:34;98846.20;;;24.10
70050;BMP180;57391;51.306;22.680;2023-04-24T10:33:07;98842.00;;;24.20
70050;BMP180;57391;51.306;22.680;2023-04-24T10:35:42;98841.60;;;24.28
70050;BMP180;57391;51.306;22.680;2023-04-24T10:38:21;98837.80;;;24.30
70050;BMP180;57391;51.306;22.680;2023-04-24T10:40:51;98836.40;;;24.34
70050;BMP180;57391;51.306;22.680;2023-04-24T10:43:18;98836.80;;;24.20
70050;BMP180;57391;51.306;22.680;2023-04-24T10:46:06;98832.00;;;24.20
70050;BMP180;57391;51.306;22.680;2023-04-24T10:48:33;98821.80;;;24.20
70050;BMP180;57391;51.306;22.680;2023-04-24T10:51:01;98829.00;;;24.30
70050;BMP180;57391;51.306;22.680;2023-04-24T10:53:30;98823.80;;;24.20
70050;BMP180;57391;51.306;22.680;2023-04-24T10:56:08;98825.40;;;24.10
70050;BMP180;57391;51.306;22.680;2023-04-24T10:58:50;98830.40;;;24.10
70050;BMP180;57391;51.306;22.680;2023-04-24T11:01:28;98822.60;;;23.90
70050;BMP180;57391;51.306;22.680;2023-04-24T11:04:02;98823.20;;;23.86
70050;BMP180;57391;51.306;22.680;2023-04-24T11:06:35;98826.60;;;23.90
70050;BMP180;57391;51.306;22.680;2023-04-24T11:09:10;98821.60;;;23.92
70050;BMP180;57391;51.306;22.680;2023-04-24T11:11:46;98818.40;;;24.00
70050;BMP180;57391;51.306;22.680;2023-04-24T11:14:15;98821.40;;;24.00
70050;BMP180;57391;51.306;22.680;2023-04-24T11:17:00;98821.00;;;24.00
70050;BMP180;57391;51.306;22.680;2023-04-24T11:19:27;98817.40;;;23.90
70050;BMP180;57391;51.306;22.680;2023-04-24T11:27:22;98815.20;;;23.60
70050;BMP180;57391;51.306;22.680;2023-04-24T11:37:42;98812.20;;;23.70
70050;BMP180;57391;51.306;22.680;2023-04-24T11:40:13;98819.00;;;23.80
70050;BMP180;57391;51.306;22.680;2023-04-24T11:42:48;98805.40;;;23.50
70050;BMP180;57391;51.306;22.680;2023-04-24T11:45:17;98809.40;;;23.26
70050;BMP180;57391;51.306;22.680;2023-04-24T11:47:44;98813.60;;;23.10
70050;BMP180;57391;51.306;22.680;2023-04-24T11:50:14;98801.00;;;23.00
70050;BMP180;57391;51.306;22.680;2023-04-24T11:52:45;98795.80;;;23.10
70050;BMP180;57391;51.306;22.680;2023-04-24T11:57:47;98805.00;;;23.20
70050;BMP180;57391;51.306;22.680;2023-04-24T12:00:18;98791.60;;;23.02
70050;BMP180;57391;51.306;22.680;2023-04-24T12:02:46;98788.40;;;23.00
70050;BMP180;57391;51.306;22.680;2023-04-24T12:05:25;98785.20;;;22.90
70050;BMP180;57391;51.306;22.680;2023-04-24T12:07:53;98782.80;;;22.90
70050;BMP180;57391;51.306;22.680;2023-04-24T12:10:26;98780.00;;;23.00
70050;BMP180;57391;51.306;22.680;2023-04-24T12:12:53;98774.00;;;23.10
70050;BMP180;57391;51.306;22.680;2023-04-24T12:15:23;98772.20;;;23.30
70050;BMP180;57391;51.306;22.680;2023-04-24T12:17:52;98769.40;;;23.46
70050;BMP180;57391;51.306;22.680;2023-04-24T12:20:31;98772.00;;;23.50
70050;BMP180;57391;51.306;22.680;2023-04-24T12:23:01;98776.20;;;23.30
70050;BMP180;57391;51.306;22.680;2023-04-24T12:25:33;98768.80;;;23.10
70050;BMP180;57391;51.306;22.680;2023-04-24T12:30:34;98764.20;;;23.10
70050;BMP180;57391;51.306;22.680;2023-04-24T12:33:03;98757.40;;;23.10
70050;BMP180;57391;51.306;22.680;2023-04-24T12:35:33;98758.60;;;23.20
70050;BMP180;57391;51.306;22.680;2023-04-24T12:38:10;98750.40;;;23.30
70050;BMP180;57391;51.306;22.680;2023-04-24T12:40:40;98749.20;;;23.30
70050;BMP180;57391;51.306;22.680;2023-04-24T12:43:17;98743.60;;;23.24
70050;BMP180;57391;51.306;22.680;2023-04-24T12:45:45;98749.20;;;23.30
70050;BMP180;57391;51.306;22.680;2023-04-24T12:48:12;98743.20;;;23.20
70050;BMP180;57391;51.306;22.680;2023-04-24T12:50:40;98740.40;;;23.20
70050;BMP180;57391;51.306;22.680;2023-04-24T12:53:08;98731.20;;;23.20
70050;BMP180;57391;51.306;22.680;2023-04-24T12:55:37;98728.80;;;23.20
70050;BMP180;57391;51.306;22.680;2023-04-24T12:58:04;98730.00;;;23.22
70050;BMP180;57391;51.306;22.680;2023-04-24T13:00:32;98724.80;;;23.30
70050;BMP180;57391;51.306;22.680;2023-04-24T13:02:59;98733.20;;;23.24
70050;BMP180;57391;51.306;22.680;2023-04-24T13:05:26;98722.80;;;23.10
70050;BMP180;57391;51.306;22.680;2023-04-24T13:07:53;98713.60;;;23.02
70050;BMP180;57391;51.306;22.680;2023-04-24T13:10:20;98714.20;;;22.94
70050;BMP180;57391;51.306;22.680;2023-04-24T13:12:47;98713.00;;;23.00
70050;BMP180;57391;51.306;22.680;2023-04-24T13:15:14;98721.20;;;23.06
70050;BMP180;57391;51.306;22.680;2023-04-24T13:17:41;98708.40;;;23.04
70050;BMP180;57391;51.306;22.680;2023-04-24T13:20:09;98690.40;;;23.12
70050;BMP180;57391;51.306;22.680;2023-04-24T13:22:36;98702.00;;;23.30
70050;BMP180;57391;51.306;22.680;2023-04-24T13:25:05;98692.80;;;23.40
70050;BMP180;57391;51.306;22.680;2023-04-24T13:27:33;98699.00;;;23.46
70050;BMP180;57391;51.306;22.680;2023-04-24T13:30:00;98700.00;;;23.60
70050;BMP180;57391;51.306;22.680;2023-04-24T13:32:27;98698.40;;;23.60
70050;BMP180;57391;51.306;22.680;2023-04-24T13:34:56;98695.80;;;23.70
70050;BMP180;57391;51.306;22.680;2023-04-24T13:37:23;98687.20;;;23.78
70050;BMP180;57391;51.306;22.680;2023-04-24T13:39:50;98685.20;;;23.80
70050;BMP180;57391;51.306;22.680;2023-04-24T13:42:18;98678.00;;;23.82
70050;BMP180;57391;51.306;22.680;2023-04-24T13:44:45;98675.20;;;23.90
70050;BMP180;57391;51.306;22.680;2023-04-24T13:47:13;98677.20;;;24.00
70050;BMP180;57391;51.306;22.680;2023-04-24T13:49:40;98673.80;;;24.00
70050;BMP180;57391;51.306;22.680;2023-04-24T13:52:07;98677.20;;;24.08
70050;BMP180;57391;51.306;22.680;2023-04-24T13:54:41;98675.60;;;24.10
70050;BMP180;57391;51.306;22.680;2023-04-24T13:57:08;98667.80;;;23.98
70050;BMP180;57391;51.306;22.680;2023-04-24T13:59:36;98664.20;;;23.90
70050;BMP180;57391;51.306;22.680;2023-04-24T14:02:04;98659.80;;;23.80
70050;BMP180;57391;51.306;22.680;2023-04-24T14:04:31;98665.20;;;23.78
70050;BMP180;57391;51.306;22.680;2023-04-24T14:06:58;98662.80;;;23.70
70050;BMP180;57391;51.306;22.680;2023-04-24T14:09:25;98667.20;;;23.60
70050;BMP180;57391;51.306;22.680;2023-04-24T14:11:53;98660.00;;;23.60
70050;BMP180;57391;51.306;22.680;2023-04-24T14:14:21;98657.20;;;23.42
70050;BMP180;57391;51.306;22.680;2023-04-24T14:16:48;98660.80;;;23.30
70050;BMP180;57391;51.306;22.680;2023-04-24T14:19:15;98657.40;;;23.10
70050;BMP180;57391;51.306;22.680;2023-04-24T14:21:42;98656.00;;;23.10
70050;BMP180;57391;51.306;22.680;2023-04-24T14:24:10;98656.80;;;23.00
70050;BMP180;57391;51.306;22.680;2023-04-24T14:26:37;98648.60;;;23.00
70050;BMP180;57391;51.306;22.680;2023-04-24T14:29:05;98650.60;;;23.00